createdAt,value
2017-07-26T00:06:40.407Z,100
2017-07-26T00:16:54.424Z,100
2017-07-26T00:27:08.983Z,100
2017-07-26T00:37:23.953Z,100
2017-07-26T00:47:39.315Z,100
2017-07-26T00:57:54.201Z,100
2017-07-26T01:08:08.345Z,100
2017-07-26T01:18:23.309Z,100
2017-07-26T01:28:38.502Z,100
2017-07-26T01:38:53.639Z,100
2017-07-26T01:49:08.087Z,100
2017-07-26T01:59:23.813Z,100
2017-07-26T02:09:38.611Z,100
2017-07-26T02:19:53.483Z,100
2017-07-26T02:30:09.230Z,100
2017-07-26T02:40:23.861Z,100
2017-07-26T02:50:38.486Z,100
2017-07-26T03:00:52.334Z,100
2017-07-26T03:11:06.900Z,100
2017-07-26T03:21:21.197Z,100
2017-07-26T03:31:36.356Z,100
2017-07-26T03:41:50.900Z,100
2017-07-26T03:52:05.677Z,100
2017-07-26T04:02:20.359Z,100
2017-07-26T04:12:35.896Z,100
2017-07-26T04:22:49.856Z,100
2017-07-26T04:33:03.992Z,100
2017-07-26T04:43:19.117Z,100
2017-07-26T04:53:34.550Z,100
2017-07-26T05:03:48.283Z,100
2017-07-26T05:14:03.924Z,100
2017-07-26T05:24:19.526Z,100
2017-07-26T05:34:34.688Z,100
2017-07-26T05:44:50.035Z,100
2017-07-26T05:55:04.066Z,100
2017-07-26T06:05:19.021Z,100
2017-07-26T06:15:33.824Z,100
2017-07-26T06:25:48.699Z,100
2017-07-26T06:36:03.098Z,100
2017-07-26T06:46:18.467Z,100
2017-07-26T06:56:33.249Z,100
2017-07-26T07:06:48.141Z,100
2017-07-26T07:17:02.661Z,100
2017-07-26T07:27:16.744Z,100
2017-07-26T07:37:31.455Z,100
2017-07-26T07:47:47.273Z,100
2017-07-26T07:58:02.304Z,100
2017-07-26T08:08:17.861Z,100
2017-07-26T08:18:33.001Z,100
2017-07-26T08:28:46.978Z,100
2017-07-26T08:39:01.891Z,100
2017-07-26T08:49:15.844Z,100
2017-07-26T08:59:31.290Z,100
2017-07-26T09:09:46.212Z,100
2017-07-26T09:20:01.802Z,99.2
2017-07-26T09:30:16.001Z,98.3
2017-07-26T09:40:30.020Z,97.3
2017-07-26T09:50:44.980Z,93.3
2017-07-26T10:01:00.013Z,93.6
2017-07-26T10:11:15.852Z,92.6
2017-07-26T10:21:30.442Z,89.2
2017-07-26T10:31:44.380Z,89.9
2017-07-26T10:41:58.937Z,88.9
2017-07-26T10:52:14.719Z,89
2017-07-26T11:02:30.587Z,89.1
2017-07-26T11:12:45.860Z,88.7
2017-07-26T11:23:00.033Z,86.8
2017-07-26T11:33:15.495Z,84.3
2017-07-26T11:43:30.852Z,84.6
2017-07-26T11:53:46.426Z,84.3
2017-07-26T12:04:00.506Z,84.6
2017-07-26T12:14:15.499Z,83.5
2017-07-26T12:24:30.647Z,83.2
2017-07-26T12:34:45.585Z,82.7
2017-07-26T12:44:59.543Z,82.2
2017-07-26T12:55:14.444Z,80.5
2017-07-26T13:05:30.167Z,78.6
2017-07-26T13:15:45.440Z,79.8
2017-07-26T13:26:00.041Z,77.6
2017-07-26T13:36:15.849Z,77.7
2017-07-26T13:46:30.854Z,78.2
2017-07-26T13:56:46.294Z,77.9
2017-07-26T14:07:00.998Z,76.1
2017-07-26T14:17:15.014Z,75.7
2017-07-26T14:27:29.946Z,72.6
2017-07-26T14:37:44.085Z,75.2
2017-07-26T14:47:58.000Z,75.9
2017-07-26T14:58:13.039Z,72.9
2017-07-26T15:08:27.771Z,73
2017-07-26T15:18:43.256Z,74.5
2017-07-26T15:28:58.628Z,74
2017-07-26T15:39:13.790Z,74.4
2017-07-26T15:49:28.130Z,75.2
2017-07-26T15:59:43.737Z,74.6
2017-07-26T16:09:58.277Z,77.3
2017-07-26T16:20:13.456Z,75.5
2017-07-26T16:30:29.331Z,76.6
2017-07-26T16:40:44.351Z,75.8
2017-07-26T16:50:59.848Z,76.5
2017-07-26T17:01:14.022Z,75.9
2017-07-26T17:11:28.884Z,77.2
2017-07-26T17:21:43.776Z,77.7
2017-07-26T17:31:58.516Z,77.9
2017-07-26T17:42:13.399Z,79.2
2017-07-26T17:52:28.816Z,80
2017-07-26T18:02:43.556Z,82.8
2017-07-26T18:12:57.461Z,85.1
2017-07-26T18:23:13.281Z,86.6
2017-07-26T18:33:28.562Z,88.1
2017-07-26T18:43:44.296Z,89.6
2017-07-26T18:53:59.016Z,90.7
2017-07-26T19:04:14.527Z,92.3
2017-07-26T19:14:29.017Z,94.4
2017-07-26T19:24:43.236Z,95.6
2017-07-26T19:34:57.788Z,96.4
2017-07-26T19:45:13.139Z,97.2
2017-07-26T19:55:27.645Z,97.1
2017-07-26T20:05:41.507Z,95.9
2017-07-26T20:15:56.828Z,98.1
2017-07-26T20:26:11.692Z,99.9
2017-07-26T20:36:26.084Z,100
2017-07-26T20:46:40.210Z,100
2017-07-26T20:56:56.318Z,100
2017-07-26T21:07:09.665Z,100
2017-07-26T21:17:24.480Z,100
2017-07-26T21:27:39.720Z,100
2017-07-26T21:37:54.058Z,100
2017-07-26T21:48:07.888Z,100
2017-07-26T21:58:22.694Z,100
2017-07-26T22:08:37.923Z,98
2017-07-26T22:18:52.194Z,96.3
2017-07-26T22:29:06.024Z,95.7
2017-07-26T22:39:21.869Z,94.6
2017-07-26T22:49:36.326Z,94.4
2017-07-26T22:59:51.503Z,94.9
2017-07-26T23:10:07.063Z,94.4
2017-07-26T23:20:21.008Z,95.2
2017-07-26T23:30:35.733Z,94.5
2017-07-26T23:40:49.669Z,94.9
2017-07-26T23:51:04.433Z,94.6
